Close

Questo sito utlizza cookie. Può leggere come li usiamo nella nostra Privacy Policy.

Ronchi Tower
Ronchi Tower

From Facebook

METAR & TAF

2021/09/28 03:20 LIPQ 280320Z AUTO VRB02KT 0800 R09/1400D FG FEW005/// 14/14 Q1018
2021/09/27 18:21 TAF LIPQ 271700Z 2718/2818 VRB05KT CAVOK TEMPO 2800/2806 2000 BR BKN004
2021/09/28 03:20 LIPZ 280320Z VRB02KT 3000 BR NSC 16/15 Q1019 NOSIG
2021/09/27 18:21 TAF LIPZ 271700Z 2718/2824 VRB04KT CAVOK TEMPO 2800/2808 1500 BR
2021/09/28 03:20 LIPH 280320Z AUTO 33002KT 3600 R07/1300U BCFG NCD 16/15 Q1019
2021/09/27 18:21 TAF LIPH 271700Z 2718/2818 VRB05KT CAVOK TEMPO 2800/2807 0800 FG BKN005
2021/09/28 03:20 LIRF 280320Z 31003KT 7000 NSC 17/16 Q1016 NOSIG
2021/09/27 18:21 TAF LIRF 271713Z 2718/2824 VRB05KT 9999 SCT025 TEMPO 2800/2806 3000 BR BECMG 2810/2812 28012KT BECMG 2818/2820 VRB05KT
2021/09/28 03:20 LIML 280320Z AUTO 36002KT 0200 0100SW R36/0450D BCFG VV004 14/14 Q1019
2021/09/27 18:21 TAF LIML 271700Z 2718/2818 VRB06KT 9000 FEW070 BECMG 2721/2723 3000 BR PROB40 TEMPO 2800/2806 0600 FG OVC002 BECMG 2807/2809 9999
2021/09/28 03:20 EDDM 280320Z 20002KT 9999 FEW041 14/13 Q1022 NOSIG
2021/09/27 18:27 TAF EDDM 271700Z 2718/2824 27004KT CAVOK PROB30 TEMPO 2805/2810 BKN012 BECMG 2811/2814 03005KT BECMG 2817/2819 VRB02KT
2021/09/28 03:20 EGSS 280320Z AUTO 17005KT 9999 NCD 09/07 Q1019
2021/09/27 18:09 TAF EGSS 271655Z 2718/2824 24014KT 9999 SCT025 BECMG 2721/2724 18008KT PROB30 TEMPO 2810/2815 8000 -SHRA TEMPO 2815/2824 6000 SHRA PROB40 TEMPO 2817/2824 20015G25KT 3000 +SHRA +RA BKN010
2021/09/28 03:20 EDDF 280320Z 24003KT CAVOK 11/10 Q1024 NOSIG
2021/09/27 18:27 TAF TAF EDDF 271700Z 2718/2824 22006KT 9999 SCT030 BECMG 2718/2720 BKN040 TEMPO 2720/2722 30015G30KT 2000 SHRA BKN014TCU BECMG 2722/2724 SCT030 BECMG 2812/2814 07003KT

FlightRadar24

Radar Meteo

Traffic data

Agosto 2018

Passeggeri: 63892-12,9% (rank: 23)
Nazionali 34490 -19,8%
Internazionali 29193 -3,0%

Movimenti: 1307+11,7% (rank: 24)
Tot commerciale 556 -7,2%
Aviazione generale 751 +31,5%

Cargo (tons): 20,6+62,5% (rank: 21)

Gennaio - Agosto 2018

Passeggeri: 507438-3,5% (rank: 23)
Nazionali 322655 -4,9%
Internazionali 182927 -0,7%

Movimenti: 10366-4,25 (rank: 22)
Tot commerciale 5328 -11,0%
Aviazione generale 5038 +4,2%

Cargo (tons): 299,2+61,9% (rank: 20)

Photo

Boeing 737-800
Boeing 737-800
Distinct views: 34
Douglas DC-6B
Douglas DC-6B
Distinct views: 83
Reims F152
Reims F152
Distinct views: 164
Canadair CL-600 CRJ-900
Canadair CL-600 CRJ-900
Total views: 5265